Time,TemperatureF,DewpointF,PressureIn,WindDirection,WindDirectionDegrees,WindSpeedMPH,WindSpeedGustMPH,Humidity,HourlyPrecipIn,Conditions,Clouds,dailyrainin,SoftwareType,DateUTC
2013-10-27 00:00:00,49.6,32.0,29.89,ENE,60,0.0,3.0,52,0.00,,,0.00,weatherlink.com 1.10,2013-10-27 04:00:00,
2013-10-27 00:15:00,49.4,32.0,29.89,ENE,73,0.0,2.0,52,0.00,,,0.00,weatherlink.com 1.10,2013-10-27 04:15:00,
2013-10-27 00:30:00,49.4,32.0,29.88,ENE,72,1.0,2.0,52,0.00,,,0.00,weatherlink.com 1.10,2013-10-27 04:30:00,
2013-10-27 00:45:00,49.7,33.0,29.88,NE,43,2.0,4.0,52,0.00,,,0.00,weatherlink.com 1.10,2013-10-27 04:45:00,
2013-10-27 01:00:00,49.9,33.0,29.88,East,86,2.0,6.0,52,0.00,,,0.00,weatherlink.com 1.10,2013-10-27 05:00:00,
2013-10-27 01:15:00,50.1,32.0,29.87,ENE,60,0.0,4.0,51,0.00,,,0.00,weatherlink.com 1.10,2013-10-27 05:15:00,
2013-10-27 01:30:00,50.1,32.0,29.87,NE,48,3.0,5.0,51,0.00,,,0.00,weatherlink.com 1.10,2013-10-27 05:30:00,
2013-10-27 01:45:00,50.2,33.0,29.87,ENE,68,1.0,6.0,51,0.00,,,0.00,weatherlink.com 1.10,2013-10-27 05:45:00,
2013-10-27 02:00:00,50.1,33.0,29.87,NNE,30,3.0,5.0,52,0.00,,,0.00,weatherlink.com 1.10,2013-10-27 06:00:00,
2013-10-27 02:15:00,50.1,33.0,29.87,NE,51,2.0,5.0,52,0.00,,,0.00,weatherlink.com 1.10,2013-10-27 06:15:00,
2013-10-27 02:30:00,50.0,33.0,29.87,ENE,65,1.0,6.0,52,0.00,,,0.00,weatherlink.com 1.10,2013-10-27 06:30:00,
2013-10-27 02:45:00,49.9,33.0,29.86,East,101,2.0,2.0,53,0.00,,,0.00,weatherlink.com 1.10,2013-10-27 06:45:00,
2013-10-27 03:00:00,49.8,33.0,29.86,ENE,68,1.0,3.0,53,0.00,,,0.00,weatherlink.com 1.10,2013-10-27 07:00:00,
2013-10-27 03:15:00,49.7,33.0,29.86,NE,55,1.0,4.0,53,0.00,,,0.00,weatherlink.com 1.10,2013-10-27 07:15:00,
2013-10-27 03:30:00,49.5,33.0,29.86,ENE,63,1.0,2.0,54,0.00,,,0.00,weatherlink.com 1.10,2013-10-27 07:30:00,
2013-10-27 03:45:00,49.3,33.0,29.85,ENE,70,2.0,4.0,54,0.00,,,0.00,weatherlink.com 1.10,2013-10-27 07:45:00,
2013-10-27 04:00:00,49.1,33.0,29.85,East,98,0.0,2.0,54,0.00,,,0.00,weatherlink.com 1.10,2013-10-27 08:00:00,
2013-10-27 04:16:00,48.9,33.0,29.85,ENE,60,0.0,4.0,54,0.00,,,0.00,weatherlink.com 1.10,2013-10-27 08:16:00,
2013-10-27 04:31:00,48.2,33.0,29.86,East,96,0.0,1.0,55,0.00,,,0.00,weatherlink.com 1.10,2013-10-27 08:31:00,
2013-10-27 04:46:00,47.5,32.0,29.86,ENE,68,0.0,2.0,56,0.00,,,0.00,weatherlink.com 1.10,2013-10-27 08:46:00,
2013-10-27 05:01:00,47.0,32.0,29.86,ENE,68,0.0,2.0,57,0.00,,,0.00,weatherlink.com 1.10,2013-10-27 09:01:00,
2013-10-27 05:16:00,46.3,32.0,29.87,ENE,59,0.0,0.0,59,0.00,,,0.00,weatherlink.com 1.10,2013-10-27 09:16:00,
2013-10-27 05:31:00,46.8,32.0,29.88,NNE,25,2.0,3.0,57,0.00,,,0.00,weatherlink.com 1.10,2013-10-27 09:31:00,
2013-10-27 05:46:00,47.0,32.0,29.88,NE,55,1.0,5.0,57,0.00,,,0.00,weatherlink.com 1.10,2013-10-27 09:46:00,
2013-10-27 06:01:00,46.7,32.0,29.88,NE,38,2.0,3.0,57,0.00,,,0.00,weatherlink.com 1.10,2013-10-27 10:01:00,
2013-10-27 06:16:00,46.3,32.0,29.89,ENE,60,0.0,1.0,59,0.00,,,0.00,weatherlink.com 1.10,2013-10-27 10:16:00,
2013-10-27 06:31:00,45.7,32.0,29.90,NNW,336,3.0,4.0,60,0.00,,,0.00,weatherlink.com 1.10,2013-10-27 10:31:00,
2013-10-27 06:46:00,45.7,32.0,29.90,ENE,69,0.0,2.0,60,0.00,,,0.00,weatherlink.com 1.10,2013-10-27 10:46:00,
2013-10-27 07:01:00,45.2,32.0,29.90,ENE,62,0.0,1.0,61,0.00,,,0.00,weatherlink.com 1.10,2013-10-27 11:01:00,
2013-10-27 07:16:00,44.8,32.0,29.90,ENE,64,0.0,2.0,62,0.00,,,0.00,weatherlink.com 1.10,2013-10-27 11:16:00,
2013-10-27 07:31:00,45.2,32.0,29.91,NNE,21,3.0,4.0,61,0.00,,,0.00,weatherlink.com 1.10,2013-10-27 11:31:00,
2013-10-27 07:46:00,45.6,33.0,29.92,ENE,60,1.0,5.0,61,0.00,,,0.00,weatherlink.com 1.10,2013-10-27 11:46:00,
2013-10-27 08:01:00,45.8,33.0,29.93,NE,42,3.0,4.0,61,0.00,,,0.00,weatherlink.com 1.10,2013-10-27 12:01:00,
2013-10-27 08:16:00,46.1,33.0,29.93,East,99,0.0,4.0,61,0.00,,,0.00,weatherlink.com 1.10,2013-10-27 12:16:00,
2013-10-27 08:31:00,46.6,33.0,29.94,East,79,1.0,3.0,60,0.00,,,0.00,weatherlink.com 1.10,2013-10-27 12:31:00,
2013-10-27 08:46:00,47.5,34.0,29.94,ESE,120,1.0,7.0,59,0.00,,,0.00,weatherlink.com 1.10,2013-10-27 12:46:00,
2013-10-27 09:01:00,48.4,34.0,29.95,ESE,115,2.0,5.0,57,0.00,,,0.00,weatherlink.com 1.10,2013-10-27 13:01:00,
2013-10-27 09:16:00,49.2,34.0,29.95,ENE,59,2.0,5.0,56,0.00,,,0.00,weatherlink.com 1.10,2013-10-27 13:16:00,
2013-10-27 09:31:00,49.9,34.0,29.95,ESE,113,0.0,6.0,55,0.00,,,0.00,weatherlink.com 1.10,2013-10-27 13:31:00,
2013-10-27 09:46:00,50.7,34.0,29.96,ESE,115,2.0,6.0,54,0.00,,,0.00,weatherlink.com 1.10,2013-10-27 13:46:00,
2013-10-27 10:01:00,51.5,34.0,29.96,SE,143,4.0,11.0,51,0.00,,,0.00,weatherlink.com 1.10,2013-10-27 14:01:00,
2013-10-27 10:16:00,52.4,34.0,29.97,West,278,7.0,7.0,50,0.00,,,0.00,weatherlink.com 1.10,2013-10-27 14:16:00,
2013-10-27 10:31:00,52.7,34.0,29.97,SSE,156,4.0,6.0,49,0.00,,,0.00,weatherlink.com 1.10,2013-10-27 14:31:00,
2013-10-27 10:46:00,53.2,34.0,29.97,SSW,200,2.0,6.0,48,0.00,,,0.00,weatherlink.com 1.10,2013-10-27 14:46:00,
2013-10-27 11:01:00,53.9,34.0,29.97,ESE,110,2.0,7.0,48,0.00,,,0.00,weatherlink.com 1.10,2013-10-27 15:01:00,
2013-10-27 11:16:00,54.6,34.0,29.97,NNE,26,4.0,7.0,46,0.00,,,0.00,weatherlink.com 1.10,2013-10-27 15:16:00,
2013-10-27 11:32:00,55.4,35.0,29.97,ESE,116,2.0,6.0,46,0.00,,,0.00,weatherlink.com 1.10,2013-10-27 15:32:00,
2013-10-27 11:47:00,55.3,34.0,29.97,North,5,3.0,6.0,45,0.00,,,0.00,weatherlink.com 1.10,2013-10-27 15:47:00,
2013-10-27 12:02:00,56.0,34.0,29.96,East,84,2.0,8.0,44,0.00,,,0.00,weatherlink.com 1.10,2013-10-27 16:02:00,
2013-10-27 12:17:00,56.5,34.0,29.96,NNE,15,4.0,7.0,43,0.00,,,0.00,weatherlink.com 1.10,2013-10-27 16:17:00,
2013-10-27 12:32:00,56.8,34.0,29.95,SE,139,2.0,7.0,42,0.00,,,0.00,weatherlink.com 1.10,2013-10-27 16:32:00,
2013-10-27 12:47:00,57.0,34.0,29.95,SSE,154,4.0,7.0,42,0.00,,,0.00,weatherlink.com 1.10,2013-10-27 16:47:00,
2013-10-27 13:02:00,58.0,34.0,29.94,ESE,104,2.0,6.0,41,0.00,,,0.00,weatherlink.com 1.10,2013-10-27 17:02:00,
2013-10-27 13:17:00,58.3,34.0,29.94,SSE,148,2.0,10.0,41,0.00,,,0.00,weatherlink.com 1.10,2013-10-27 17:17:00,
2013-10-27 13:32:00,58.2,34.0,29.94,ENE,68,2.0,8.0,40,0.00,,,0.00,weatherlink.com 1.10,2013-10-27 17:32:00,
2013-10-27 13:47:00,58.9,33.0,29.93,NW,319,4.0,7.0,38,0.00,,,0.00,weatherlink.com 1.10,2013-10-27 17:47:00,
2013-10-27 14:02:00,58.6,33.0,29.93,ESE,105,2.0,10.0,38,0.00,,,0.00,weatherlink.com 1.10,2013-10-27 18:02:00,
2013-10-27 14:17:00,59.3,33.0,29.93,ESE,123,2.0,9.0,37,0.00,,,0.00,weatherlink.com 1.10,2013-10-27 18:17:00,
2013-10-27 14:32:00,59.3,32.0,29.93,NNE,22,3.0,8.0,36,0.00,,,0.00,weatherlink.com 1.10,2013-10-27 18:32:00,
2013-10-27 14:47:00,57.9,32.0,29.94,SE,129,3.0,8.0,38,0.00,,,0.00,weatherlink.com 1.10,2013-10-27 18:47:00,
2013-10-27 15:02:00,57.7,32.0,29.94,SSE,150,2.0,7.0,38,0.00,,,0.00,weatherlink.com 1.10,2013-10-27 19:02:00,
2013-10-27 15:17:00,58.5,33.0,29.94,SSE,152,3.0,6.0,38,0.00,,,0.00,weatherlink.com 1.10,2013-10-27 19:17:00,
2013-10-27 15:32:00,57.4,32.0,29.94,SE,135,3.0,6.0,39,0.00,,,0.00,weatherlink.com 1.10,2013-10-27 19:32:00,
2013-10-27 15:47:00,56.6,32.0,29.95,SE,127,2.0,6.0,39,0.00,,,0.00,weatherlink.com 1.10,2013-10-27 19:47:00,
2013-10-27 16:02:00,56.7,32.0,29.95,ESE,107,3.0,7.0,39,0.00,,,0.00,weatherlink.com 1.10,2013-10-27 20:02:00,
2013-10-27 16:17:00,56.5,32.0,29.96,East,96,2.0,6.0,39,0.00,,,0.00,weatherlink.com 1.10,2013-10-27 20:17:00,
2013-10-27 16:32:00,56.5,32.0,29.96,SE,143,3.0,5.0,40,0.00,,,0.00,weatherlink.com 1.10,2013-10-27 20:32:00,
2013-10-27 16:47:00,56.7,32.0,29.96,ESE,111,0.0,5.0,39,0.00,,,0.00,weatherlink.com 1.10,2013-10-27 20:47:00,
2013-10-27 17:02:00,56.0,31.0,29.97,SE,135,3.0,5.0,39,0.00,,,0.00,weatherlink.com 1.10,2013-10-27 21:02:00,
2013-10-27 17:17:00,55.8,32.0,29.97,ESE,110,1.0,6.0,40,0.00,,,0.00,weatherlink.com 1.10,2013-10-27 21:17:00,
2013-10-27 17:32:00,55.2,32.0,29.98,ESE,114,1.0,3.0,41,0.00,,,0.00,weatherlink.com 1.10,2013-10-27 21:32:00,
2013-10-27 17:47:00,54.8,31.0,29.98,East,100,1.0,4.0,41,0.00,,,0.00,weatherlink.com 1.10,2013-10-27 21:47:00,
2013-10-27 18:02:00,54.6,32.0,30.00,WNW,293,4.0,9.0,42,0.00,,,0.00,weatherlink.com 1.10,2013-10-27 22:02:00,
2013-10-27 18:17:00,54.1,31.0,30.00,NE,37,2.0,7.0,42,0.00,,,0.00,weatherlink.com 1.10,2013-10-27 22:17:00,
2013-10-27 18:32:00,53.5,31.0,30.01,NE,34,3.0,4.0,43,0.00,,,0.00,weatherlink.com 1.10,2013-10-27 22:32:00,
2013-10-27 18:47:00,53.1,32.0,30.02,ENE,70,1.0,4.0,44,0.00,,,0.00,weatherlink.com 1.10,2013-10-27 22:47:00,
2013-10-27 19:02:00,52.9,32.0,30.03,ENE,58,0.0,3.0,45,0.00,,,0.00,weatherlink.com 1.10,2013-10-27 23:02:00,
2013-10-27 19:17:00,52.4,32.0,30.04,East,94,0.0,3.0,46,0.00,,,0.00,weatherlink.com 1.10,2013-10-27 23:17:00,
2013-10-27 19:32:00,52.1,32.0,30.04,East,89,0.0,3.0,46,0.00,,,0.00,weatherlink.com 1.10,2013-10-27 23:32:00,
2013-10-27 19:47:00,51.8,32.0,30.04,East,84,0.0,4.0,47,0.00,,,0.00,weatherlink.com 1.10,2013-10-27 23:47:00,
2013-10-27 20:02:00,51.3,31.0,30.04,East,101,1.0,3.0,47,0.00,,,0.00,weatherlink.com 1.10,2013-10-28 00:02:00,
2013-10-27 20:18:00,51.1,32.0,30.05,ENE,58,0.0,3.0,48,0.00,,,0.00,weatherlink.com 1.10,2013-10-28 00:18:00,
2013-10-27 20:33:00,50.9,32.0,30.06,ESE,105,1.0,3.0,48,0.00,,,0.00,weatherlink.com 1.10,2013-10-28 00:33:00,
2013-10-27 20:48:00,50.7,32.0,30.07,ENE,58,2.0,4.0,49,0.00,,,0.00,weatherlink.com 1.10,2013-10-28 00:48:00,
2013-10-27 21:03:00,50.3,32.0,30.07,East,81,0.0,3.0,50,0.00,,,0.00,weatherlink.com 1.10,2013-10-28 01:03:00,
2013-10-27 21:18:00,49.9,32.0,30.07,East,85,1.0,3.0,50,0.00,,,0.00,weatherlink.com 1.10,2013-10-28 01:18:00,
2013-10-27 21:33:00,49.4,32.0,30.08,ESE,123,2.0,3.0,51,0.00,,,0.00,weatherlink.com 1.10,2013-10-28 01:33:00,
2013-10-27 21:48:00,49.3,32.0,30.09,ESE,121,1.0,2.0,52,0.00,,,0.00,weatherlink.com 1.10,2013-10-28 01:48:00,
2013-10-27 22:03:00,48.8,32.0,30.09,NE,49,1.0,1.0,52,0.00,,,0.00,weatherlink.com 1.10,2013-10-28 02:03:00,
2013-10-27 22:18:00,48.6,32.0,30.10,ENE,70,2.0,3.0,53,0.00,,,0.00,weatherlink.com 1.10,2013-10-28 02:18:00,
2013-10-27 22:33:00,48.5,32.0,30.10,ENE,60,1.0,3.0,53,0.00,,,0.00,weatherlink.com 1.10,2013-10-28 02:33:00,
2013-10-27 22:48:00,48.3,32.0,30.11,NE,55,1.0,3.0,53,0.00,,,0.00,weatherlink.com 1.10,2013-10-28 02:48:00,
2013-10-27 23:03:00,47.8,32.0,30.11,ESE,113,2.0,2.0,54,0.00,,,0.00,weatherlink.com 1.10,2013-10-28 03:03:00,
2013-10-27 23:18:00,47.6,32.0,30.11,NE,49,0.0,2.0,55,0.00,,,0.00,weatherlink.com 1.10,2013-10-28 03:18:00,
2013-10-27 23:33:00,47.2,32.0,30.11,NNW,330,0.0,0.0,56,0.00,,,0.00,weatherlink.com 1.10,2013-10-28 03:33:00,
2013-10-27 23:48:00,46.9,32.0,30.12,East,100,0.0,2.0,56,0.00,,,0.00,weatherlink.com 1.10,2013-10-28 03:48:00,